Conisbrough, United Kingdom
Current Conditions -  °F | °C
As of 8:50 PM on Tuesday 27 Jan 2015 (Local Time) from EGCN Reporting Station
Overcast Overcast  
Wind Chill: 39°   Ceiling: 2200
Heat Index: 45°   Visibility: 6mi
Dew Point: 39°   Wind: 10mph
Humidity: 81%   Direction: 200°SSW
Pressure: 30.09"   Gusts: NA
Location:  53.48°N, 1.23°W
Report Text: EGCN 272050Z 20009KT 9999 BKN022 OVC028 07/04 Q1019
Loading
Personal Weather Stations






























Interactive Weather Map New forecast layout! Learn more

10-Day Weather Forecast

Advertisements
Track Severe Weather on mobile